Time;durP1;ratioP1;P1;durP2;ratioP2;P2;SDS_P1;SDS_P2;PMS_P1;PMS_P2;Temp;Humidity;BMP_temperature;BMP_pressure;BME280_temperature;BME280_humidity;BME280_pressure;Samples;Min_cycle;Max_cycle;Signal;HPM_P1;HPM_P2
2023/08/19 00:00:46;;;;;;;;;;;20.70;99.90;;;;;;5113103;28;19924;-63
2023/08/19 00:03:15;;;;;;;;;;;20.70;99.90;;;;;;5113598;28;20559;-64
2023/08/19 00:05:41;;;;;;;;;;;20.70;99.90;;;;;;5113801;28;20380;-64
2023/08/19 00:08:08;;;;;;;;;;;20.70;99.90;;;;;;5113145;28;19973;-63
2023/08/19 00:10:35;;;;;;;;;;;20.70;99.90;;;;;;5113542;28;19952;-63
2023/08/19 00:13:01;;;;;;;;;;;20.60;99.90;;;;;;5095454;28;19924;-63
2023/08/19 00:15:28;;;;;;;;;;;20.70;99.90;;;;;;5112956;28;19931;-62
2023/08/19 00:17:55;;;;;;;;;;;20.70;99.90;;;;;;5095515;28;20399;-63
2023/08/19 00:20:26;;;;;;;;;;;20.70;99.90;;;;;;5113449;28;19924;-63
2023/08/19 00:22:53;;;;;;;;;;;20.70;99.90;;;;;;5094834;28;19924;-63
2023/08/19 00:25:19;;;;;;;;;;;20.70;99.90;;;;;;5095311;28;19930;-62
2023/08/19 00:27:46;;;;;;;;;;;20.60;99.90;;;;;;5113305;28;19969;-62
2023/08/19 00:30:13;;;;;;;;;;;20.60;99.90;;;;;;5110579;28;19934;-63
2023/08/19 00:32:40;;;;;;;;;;;20.70;99.90;;;;;;5095313;28;19936;-63
2023/08/19 00:35:07;;;;;;;;;;;20.70;99.90;;;;;;5111037;28;20010;-62
2023/08/19 00:37:35;;;;;;;;;;;20.60;99.90;;;;;;5112661;28;20372;-63
2023/08/19 00:40:04;;;;;;;;;;;20.60;99.90;;;;;;5092974;28;19931;-63
2023/08/19 00:42:30;;;;;;;;;;;20.60;99.90;;;;;;5112358;28;19924;-63
2023/08/19 00:44:57;;;;;;;;;;;20.60;99.90;;;;;;5112967;28;19970;-63
2023/08/19 00:47:24;;;;;;;;;;;20.60;99.90;;;;;;5094697;28;19973;-63
2023/08/19 00:49:51;;;;;;;;;;;20.60;99.90;;;;;;5112162;28;19984;-63
2023/08/19 00:52:19;;;;;;;;;;;20.70;99.90;;;;;;5113027;28;19923;-63
2023/08/19 00:54:48;;;;;;;;;;;20.60;99.90;;;;;;5117296;28;20014;-63
2023/08/19 00:57:15;;;;;;;;;;;20.60;99.90;;;;;;5098357;28;19924;-63
2023/08/19 00:59:42;;;;;;;;;;;20.70;99.90;;;;;;5117227;28;19924;-63
2023/08/19 01:02:08;;;;;;;;;;;20.60;99.90;;;;;;5117427;28;19931;-63
2023/08/19 01:04:35;;;;;;;;;;;20.60;99.90;;;;;;5116589;28;19939;-63
2023/08/19 01:07:07;;;;;;;;;;;20.60;99.90;;;;;;5099094;28;19924;-63
2023/08/19 01:09:38;;;;;;;;;;;20.60;99.90;;;;;;5117044;28;19923;-63
2023/08/19 01:12:10;;;;;;;;;;;20.60;99.90;;;;;;5116296;28;19969;-63
2023/08/19 01:14:44;;;;;;;;;;;20.60;99.90;;;;;;5116726;28;19935;-64
2023/08/19 01:17:14;;;;;;;;;;;20.60;99.90;;;;;;5098943;28;19923;-64
2023/08/19 01:19:42;;;;;;;;;;;20.50;99.90;;;;;;5116177;28;19934;-63
2023/08/19 01:22:11;;;;;;;;;;;20.50;99.90;;;;;;5116850;28;19967;-63
2023/08/19 01:24:39;;;;;;;;;;;20.50;99.90;;;;;;5098152;28;20376;-63
2023/08/19 01:27:07;;;;;;;;;;;20.40;99.90;;;;;;5098734;28;19924;-63
2023/08/19 01:29:33;;;;;;;;;;;20.40;99.90;;;;;;5098479;28;20499;-63
2023/08/19 01:32:00;;;;;;;;;;;20.40;99.90;;;;;;5116174;28;19931;-63
2023/08/19 01:34:27;;;;;;;;;;;20.30;99.90;;;;;;5116438;28;20280;-64
2023/08/19 01:36:57;;;;;;;;;;;20.30;99.90;;;;;;5098307;28;19928;-63
2023/08/19 01:39:25;;;;;;;;;;;20.30;99.90;;;;;;5116164;28;19928;-63
2023/08/19 01:41:53;;;;;;;;;;;20.30;99.90;;;;;;5098150;28;20379;-63
2023/08/19 01:44:21;;;;;;;;;;;20.30;99.90;;;;;;5116499;28;19924;-63
2023/08/19 01:46:48;;;;;;;;;;;20.30;99.90;;;;;;5115876;28;20348;-63
2023/08/19 01:49:14;;;;;;;;;;;20.30;99.90;;;;;;5094461;28;19981;-64
2023/08/19 01:51:41;;;;;;;;;;;20.30;99.90;;;;;;5092126;28;19931;-64
2023/08/19 01:54:08;;;;;;;;;;;20.30;99.90;;;;;;5093814;28;19924;-64
2023/08/19 01:56:35;;;;;;;;;;;20.20;99.90;;;;;;5092303;28;19970;-63
2023/08/19 01:59:03;;;;;;;;;;;20.20;99.90;;;;;;5094841;28;19924;-64
2023/08/19 02:01:29;;;;;;;;;;;20.20;99.90;;;;;;5094164;28;19928;-64
2023/08/19 02:03:56;;;;;;;;;;;20.20;99.90;;;;;;5095115;28;19931;-64
2023/08/19 02:06:23;;;;;;;;;;;20.20;99.90;;;;;;5093840;28;19970;-64
2023/08/19 02:08:50;;;;;;;;;;;20.20;99.90;;;;;;5093987;28;19974;-64
2023/08/19 02:11:16;;;;;;;;;;;20.20;99.90;;;;;;5094029;28;19927;-64
2023/08/19 02:13:43;;;;;;;;;;;20.20;99.90;;;;;;5094635;28;19924;-64
2023/08/19 02:16:11;;;;;;;;;;;20.20;99.90;;;;;;5094314;28;19930;-63
2023/08/19 02:18:38;;;;;;;;;;;20.20;99.90;;;;;;5094033;28;19977;-63
2023/08/19 02:21:04;;;;;;;;;;;20.20;99.90;;;;;;5094725;28;20300;-62
2023/08/19 02:23:31;;;;;;;;;;;20.20;99.90;;;;;;5094173;28;19974;-62
2023/08/19 02:25:58;;;;;;;;;;;20.20;99.90;;;;;;5095220;28;19924;-62
2023/08/19 02:28:24;;;;;;;;;;;20.20;99.90;;;;;;5093468;28;19985;-63
2023/08/19 02:30:51;;;;;;;;;;;20.20;99.90;;;;;;5095048;28;19931;-63
2023/08/19 02:33:19;;;;;;;;;;;20.30;99.90;;;;;;5095157;28;19924;-63
2023/08/19 02:35:50;;;;;;;;;;;20.30;99.90;;;;;;5094305;28;19924;-63
2023/08/19 02:38:16;;;;;;;;;;;20.30;99.90;;;;;;5093936;28;19924;-63
2023/08/19 02:40:48;;;;;;;;;;;20.30;99.90;;;;;;5093918;28;19931;-62
2023/08/19 02:43:14;;;;;;;;;;;20.30;99.90;;;;;;5092369;28;19932;-63
2023/08/19 02:45:41;;;;;;;;;;;20.30;99.90;;;;;;5093690;28;19925;-63
2023/08/19 02:48:08;;;;;;;;;;;20.30;99.90;;;;;;5093692;28;19924;-62
2023/08/19 02:50:36;;;;;;;;;;;20.30;99.90;;;;;;5094331;28;20299;-63
2023/08/19 02:53:03;;;;;;;;;;;20.30;99.90;;;;;;5093620;28;19931;-63
2023/08/19 02:55:30;;;;;;;;;;;20.30;99.90;;;;;;5090902;28;19928;-63
2023/08/19 02:57:56;;;;;;;;;;;20.40;99.90;;;;;;5094121;28;19978;-63
2023/08/19 03:00:23;;;;;;;;;;;20.40;99.90;;;;;;5094704;28;19924;-63
2023/08/19 03:02:50;;;;;;;;;;;20.30;99.90;;;;;;5093258;28;21447;-63
2023/08/19 03:05:17;;;;;;;;;;;20.40;99.90;;;;;;5094318;28;19924;-63
2023/08/19 03:07:45;;;;;;;;;;;20.40;99.90;;;;;;5094222;28;19924;-64
2023/08/19 03:10:11;;;;;;;;;;;20.40;99.90;;;;;;5093749;28;19928;-62
2023/08/19 03:12:38;;;;;;;;;;;20.40;99.90;;;;;;5093993;28;19932;-63
2023/08/19 03:15:06;;;;;;;;;;;20.40;99.90;;;;;;5094354;28;19932;-63
2023/08/19 03:17:32;;;;;;;;;;;20.30;99.90;;;;;;5093539;28;19931;-63
2023/08/19 03:19:59;;;;;;;;;;;20.30;99.90;;;;;;5093106;28;19942;-63
2023/08/19 03:22:26;;;;;;;;;;;20.40;99.90;;;;;;5094035;28;19931;-63
2023/08/19 03:24:54;;;;;;;;;;;20.30;99.90;;;;;;5091403;28;19928;-62
2023/08/19 03:27:21;;;;;;;;;;;20.30;99.90;;;;;;5093935;28;19924;-63
2023/08/19 03:29:47;;;;;;;;;;;20.30;99.90;;;;;;5094005;28;19931;-64
2023/08/19 03:32:14;;;;;;;;;;;20.30;99.90;;;;;;5093370;28;19932;-63
2023/08/19 03:34:41;;;;;;;;;;;20.30;99.90;;;;;;5092781;28;19928;-64
2023/08/19 03:37:07;;;;;;;;;;;20.30;99.90;;;;;;5093908;28;19932;-63
2023/08/19 03:39:34;;;;;;;;;;;20.30;99.90;;;;;;5093487;28;19928;-63
2023/08/19 03:42:02;;;;;;;;;;;20.30;99.90;;;;;;5093459;28;19932;-64
2023/08/19 03:44:29;;;;;;;;;;;20.30;99.90;;;;;;5094089;28;20281;-64
2023/08/19 03:46:56;;;;;;;;;;;20.20;99.90;;;;;;5092971;28;19930;-64
2023/08/19 03:49:22;;;;;;;;;;;20.30;99.90;;;;;;5092110;28;19925;-64
2023/08/19 03:51:49;;;;;;;;;;;20.20;99.90;;;;;;5093643;28;19924;-64
2023/08/19 03:54:16;;;;;;;;;;;20.30;99.90;;;;;;5091362;28;19924;-64
2023/08/19 03:56:43;;;;;;;;;;;20.30;99.90;;;;;;5093423;28;19924;-63
2023/08/19 03:59:11;;;;;;;;;;;20.30;99.90;;;;;;5093086;28;19931;-61
2023/08/19 04:01:39;;;;;;;;;;;20.30;99.90;;;;;;5093411;28;19924;-63
2023/08/19 04:04:06;;;;;;;;;;;20.30;99.90;;;;;;5093341;28;19932;-63
2023/08/19 04:06:33;;;;;;;;;;;20.20;99.90;;;;;;5092800;28;19924;-63
2023/08/19 04:09:00;;;;;;;;;;;20.30;99.90;;;;;;5093051;28;20334;-63
2023/08/19 04:11:27;;;;;;;;;;;20.30;99.90;;;;;;5093205;28;19924;-63
2023/08/19 04:13:54;;;;;;;;;;;20.30;99.90;;;;;;5092520;28;19931;-63
2023/08/19 04:16:23;;;;;;;;;;;20.30;99.90;;;;;;5093064;28;19932;-62
2023/08/19 04:18:50;;;;;;;;;;;20.30;99.90;;;;;;5090007;28;20007;-62
2023/08/19 04:21:17;;;;;;;;;;;20.30;99.90;;;;;;5092318;28;19925;-63
2023/08/19 04:23:44;;;;;;;;;;;20.40;99.90;;;;;;5091819;28;19928;-63
2023/08/19 04:26:11;;;;;;;;;;;20.40;99.90;;;;;;5092904;28;19932;-64
2023/08/19 04:28:37;;;;;;;;;;;20.40;99.90;;;;;;5090628;28;19924;-63
2023/08/19 04:31:04;;;;;;;;;;;20.40;99.90;;;;;;5091633;28;19932;-65
2023/08/19 04:33:33;;;;;;;;;;;20.50;99.90;;;;;;5091500;28;19931;-63
2023/08/19 04:35:59;;;;;;;;;;;20.50;99.90;;;;;;5090989;28;19924;-63
2023/08/19 04:38:26;;;;;;;;;;;20.50;99.90;;;;;;5091716;28;19931;-63
2023/08/19 04:40:53;;;;;;;;;;;20.50;99.90;;;;;;5091737;28;20383;-63
2023/08/19 04:43:20;;;;;;;;;;;20.50;99.90;;;;;;5092235;28;19978;-63
2023/08/19 04:45:46;;;;;;;;;;;20.50;99.90;;;;;;5091728;28;19981;-63
2023/08/19 04:48:13;;;;;;;;;;;20.60;99.90;;;;;;5098412;28;20387;-63
2023/08/19 04:50:41;;;;;;;;;;;20.60;99.90;;;;;;5112548;28;19950;-63
2023/08/19 04:53:08;;;;;;;;;;;20.70;99.90;;;;;;5113007;28;19928;-63
2023/08/19 04:55:35;;;;;;;;;;;20.70;99.90;;;;;;5112558;28;19957;-62
2023/08/19 04:58:02;;;;;;;;;;;20.70;99.90;;;;;;5112734;28;20380;-63
2023/08/19 05:00:29;;;;;;;;;;;20.80;99.90;;;;;;5113032;28;20387;-63
2023/08/19 05:02:56;;;;;;;;;;;20.80;99.90;;;;;;5094090;28;19989;-62
2023/08/19 05:05:22;;;;;;;;;;;20.90;99.90;;;;;;5094919;28;20371;-63
2023/08/19 05:07:51;;;;;;;;;;;20.90;99.90;;;;;;5112689;28;19924;-63
2023/08/19 05:10:17;;;;;;;;;;;21.00;99.90;;;;;;5094284;28;20337;-63
2023/08/19 05:12:44;;;;;;;;;;;21.10;99.90;;;;;;5091926;28;19927;-63
2023/08/19 05:15:11;;;;;;;;;;;21.10;99.90;;;;;;5100524;28;19925;-64
2023/08/19 05:17:38;;;;;;;;;;;21.10;99.90;;;;;;5109079;28;19935;-63
2023/08/19 05:20:06;;;;;;;;;;;21.20;99.90;;;;;;5109684;28;20023;-63
2023/08/19 05:22:33;;;;;;;;;;;21.20;99.90;;;;;;5108118;28;19924;-63
2023/08/19 05:25:02;;;;;;;;;;;21.30;99.90;;;;;;5092109;28;19985;-63
2023/08/19 05:27:29;;;;;;;;;;;21.30;99.90;;;;;;5091064;28;20372;-63
2023/08/19 05:29:56;;;;;;;;;;;21.30;99.90;;;;;;5093189;28;19941;-64
2023/08/19 05:32:22;;;;;;;;;;;21.30;99.90;;;;;;5108767;28;19927;-63
2023/08/19 05:34:49;;;;;;;;;;;21.40;99.90;;;;;;5093004;28;19927;-63
2023/08/19 05:37:16;;;;;;;;;;;21.40;99.90;;;;;;5110561;28;19923;-63
2023/08/19 05:39:43;;;;;;;;;;;21.40;99.90;;;;;;5093490;28;19988;-63
2023/08/19 05:42:11;;;;;;;;;;;21.40;99.90;;;;;;5095567;28;20348;-63
2023/08/19 05:44:38;;;;;;;;;;;21.50;99.90;;;;;;5096338;28;19932;-63
2023/08/19 05:47:05;;;;;;;;;;;21.50;99.90;;;;;;5095545;28;19931;-64
2023/08/19 05:49:32;;;;;;;;;;;21.60;99.90;;;;;;5096044;28;19969;-64
2023/08/19 05:51:58;;;;;;;;;;;21.60;99.90;;;;;;5092957;28;19924;-63
2023/08/19 05:54:25;;;;;;;;;;;21.70;99.90;;;;;;5096135;28;20329;-64
2023/08/19 05:56:52;;;;;;;;;;;21.80;99.90;;;;;;5096850;28;19924;-64
2023/08/19 05:59:20;;;;;;;;;;;21.80;99.90;;;;;;5113194;28;19924;-63
2023/08/19 06:01:47;;;;;;;;;;;21.90;99.90;;;;;;5114504;28;19939;-63
2023/08/19 06:04:15;;;;;;;;;;;21.90;99.90;;;;;;5094770;28;19931;-63
2023/08/19 06:06:42;;;;;;;;;;;22.00;99.90;;;;;;5110655;28;20037;-63
2023/08/19 06:09:09;;;;;;;;;;;22.00;99.90;;;;;;5094979;28;19947;-63
2023/08/19 06:11:37;;;;;;;;;;;22.10;99.90;;;;;;5114515;28;20094;-64
2023/08/19 06:14:04;;;;;;;;;;;22.20;99.90;;;;;;5094376;28;19924;-64
2023/08/19 06:16:32;;;;;;;;;;;22.20;99.90;;;;;;5096387;28;19931;-64
2023/08/19 06:18:59;;;;;;;;;;;22.30;99.90;;;;;;5113600;28;19930;-64
2023/08/19 06:21:26;;;;;;;;;;;22.30;99.90;;;;;;5114369;28;19977;-64
2023/08/19 06:23:52;;;;;;;;;;;22.40;99.90;;;;;;5113006;28;19928;-64
2023/08/19 06:26:19;;;;;;;;;;;22.40;99.90;;;;;;5095628;28;20347;-65
2023/08/19 06:28:46;;;;;;;;;;;22.40;99.90;;;;;;5092831;28;19935;-65
2023/08/19 06:31:13;;;;;;;;;;;22.40;99.90;;;;;;5096132;28;20333;-64
2023/08/19 06:33:41;;;;;;;;;;;22.50;99.90;;;;;;5088778;28;19951;-64
2023/08/19 06:36:10;;;;;;;;;;;22.50;99.90;;;;;;5093608;28;19928;-64
2023/08/19 06:38:40;;;;;;;;;;;22.50;99.90;;;;;;5111241;28;19935;-64
2023/08/19 06:41:09;;;;;;;;;;;22.50;99.90;;;;;;5110991;28;19948;-64
2023/08/19 06:43:37;;;;;;;;;;;22.50;99.90;;;;;;5109532;28;20391;-64
2023/08/19 06:46:05;;;;;;;;;;;22.50;99.90;;;;;;5113006;28;19932;-64
2023/08/19 06:48:32;;;;;;;;;;;22.40;99.90;;;;;;5095190;28;19924;-64
2023/08/19 06:51:01;;;;;;;;;;;22.40;99.90;;;;;;5091460;28;19931;-64
2023/08/19 06:53:28;;;;;;;;;;;22.40;99.90;;;;;;5093516;28;20021;-64
2023/08/19 06:56:00;;;;;;;;;;;22.30;99.90;;;;;;5104005;28;19932;-64
2023/08/19 06:58:29;;;;;;;;;;;22.30;99.90;;;;;;5110956;28;19939;-64
2023/08/19 07:01:00;;;;;;;;;;;22.30;99.90;;;;;;5093738;28;20324;-64
2023/08/19 07:03:29;;;;;;;;;;;22.30;99.90;;;;;;5113426;28;20171;-64
2023/08/19 07:05:57;;;;;;;;;;;22.30;99.90;;;;;;5095195;28;19930;-64
2023/08/19 07:08:27;;;;;;;;;;;22.30;99.90;;;;;;5095871;28;19923;-64
2023/08/19 07:10:54;;;;;;;;;;;22.30;99.90;;;;;;5093266;28;19932;-64
2023/08/19 07:13:21;;;;;;;;;;;22.30;99.90;;;;;;5095533;28;20295;-64
2023/08/19 07:15:49;;;;;;;;;;;22.40;99.90;;;;;;5092227;28;19965;-64
2023/08/19 07:18:19;;;;;;;;;;;22.40;99.90;;;;;;5099279;28;19928;-64
2023/08/19 07:20:46;;;;;;;;;;;22.50;99.90;;;;;;5092282;28;19923;-64
2023/08/19 07:23:14;;;;;;;;;;;22.60;99.90;;;;;;5093329;28;19924;-64
2023/08/19 07:25:43;;;;;;;;;;;22.70;99.90;;;;;;5111925;28;19924;-64
2023/08/19 07:28:12;;;;;;;;;;;22.70;99.90;;;;;;5109945;28;19963;-64
2023/08/19 07:30:39;;;;;;;;;;;22.80;99.90;;;;;;5111413;28;19931;-64
2023/08/19 07:33:07;;;;;;;;;;;22.80;99.90;;;;;;5110338;28;19924;-64
2023/08/19 07:35:34;;;;;;;;;;;22.90;99.90;;;;;;5112699;28;20734;-64
2023/08/19 07:38:01;;;;;;;;;;;22.90;99.90;;;;;;5108128;28;19931;-64
2023/08/19 07:40:28;;;;;;;;;;;23.00;99.90;;;;;;5094496;28;19932;-64
2023/08/19 07:42:56;;;;;;;;;;;23.10;99.90;;;;;;5109065;28;19923;-64
2023/08/19 07:45:22;;;;;;;;;;;23.10;99.90;;;;;;5107582;28;19932;-64
2023/08/19 07:47:49;;;;;;;;;;;23.20;99.90;;;;;;5111068;28;19927;-64
2023/08/19 07:50:16;;;;;;;;;;;23.30;99.90;;;;;;5112893;28;20413;-64
2023/08/19 07:52:42;;;;;;;;;;;23.30;99.90;;;;;;5110163;28;19946;-64
2023/08/19 07:55:10;;;;;;;;;;;23.30;99.90;;;;;;5094108;28;19985;-64
2023/08/19 07:57:37;;;;;;;;;;;23.40;99.90;;;;;;5108879;28;20399;-64
2023/08/19 08:00:05;;;;;;;;;;;23.40;99.90;;;;;;5110270;28;20291;-64
2023/08/19 08:02:32;;;;;;;;;;;23.40;99.90;;;;;;5093682;28;19928;-64
2023/08/19 08:05:00;;;;;;;;;;;23.40;99.90;;;;;;5112192;28;19923;-64
2023/08/19 08:07:27;;;;;;;;;;;23.40;99.90;;;;;;5093141;28;19928;-64
2023/08/19 08:09:54;;;;;;;;;;;23.40;99.90;;;;;;5110758;28;19935;-64
2023/08/19 08:12:20;;;;;;;;;;;23.50;99.90;;;;;;5091858;28;19923;-64
2023/08/19 08:14:47;;;;;;;;;;;23.50;99.90;;;;;;5093017;28;19993;-64
2023/08/19 08:17:15;;;;;;;;;;;23.60;99.90;;;;;;5093647;28;19931;-64
2023/08/19 08:19:42;;;;;;;;;;;23.60;99.90;;;;;;5092609;28;19958;-64
2023/08/19 08:22:09;;;;;;;;;;;23.70;99.90;;;;;;5109994;28;19973;-64
2023/08/19 08:24:35;;;;;;;;;;;23.70;99.90;;;;;;5093605;28;19923;-64
2023/08/19 08:27:02;;;;;;;;;;;23.90;99.90;;;;;;5093187;28;19977;-63
2023/08/19 08:29:29;;;;;;;;;;;23.90;99.90;;;;;;5093240;28;19923;-63
2023/08/19 08:31:55;;;;;;;;;;;24.00;99.90;;;;;;5110618;28;19924;-63
2023/08/19 08:34:24;;;;;;;;;;;24.10;99.90;;;;;;5091845;28;19931;-63
2023/08/19 08:36:50;;;;;;;;;;;24.10;99.90;;;;;;5109307;28;19924;-63
2023/08/19 08:39:17;;;;;;;;;;;24.20;99.90;;;;;;5092795;28;19927;-63
2023/08/19 08:41:44;;;;;;;;;;;24.30;99.90;;;;;;5110033;28;20395;-63
2023/08/19 08:44:11;;;;;;;;;;;24.40;99.90;;;;;;5110129;28;20276;-63
2023/08/19 08:46:39;;;;;;;;;;;24.50;99.90;;;;;;5111947;28;19931;-63
2023/08/19 08:49:06;;;;;;;;;;;24.60;99.90;;;;;;5112376;28;19931;-64
2023/08/19 08:51:34;;;;;;;;;;;24.90;99.90;;;;;;5112938;28;19924;-64
2023/08/19 08:54:02;;;;;;;;;;;25.10;99.90;;;;;;5095177;28;19924;-63
2023/08/19 08:56:28;;;;;;;;;;;25.40;99.90;;;;;;5110114;28;19997;-63
2023/08/19 08:58:55;;;;;;;;;;;25.80;99.90;;;;;;5094992;28;19985;-63
2023/08/19 09:01:23;;;;;;;;;;;26.10;99.90;;;;;;5113043;28;19924;-64
2023/08/19 09:03:51;;;;;;;;;;;26.40;99.90;;;;;;5094355;28;20359;-64
2023/08/19 09:06:18;;;;;;;;;;;27.00;99.90;;;;;;5112834;28;19928;-64
2023/08/19 09:08:49;;;;;;;;;;;27.70;99.90;;;;;;5094342;28;20383;-64
2023/08/19 09:11:21;;;;;;;;;;;28.10;99.90;;;;;;5112784;28;19928;-65
2023/08/19 09:13:48;;;;;;;;;;;28.30;99.90;;;;;;5113990;28;19927;-63
2023/08/19 09:16:15;;;;;;;;;;;28.40;99.90;;;;;;5116262;28;19931;-63
2023/08/19 09:18:43;;;;;;;;;;;29.40;99.90;;;;;;5116988;28;19923;-63
2023/08/19 09:21:10;;;;;;;;;;;29.90;99.90;;;;;;5116874;28;20391;-63
2023/08/19 09:23:38;;;;;;;;;;;29.80;99.90;;;;;;5098228;28;19973;-63
2023/08/19 09:26:09;;;;;;;;;;;29.60;99.90;;;;;;5116698;28;19946;-63
2023/08/19 09:28:35;;;;;;;;;;;29.30;99.90;;;;;;5116912;28;19924;-64
2023/08/19 09:31:17;;;;;;;;;;;28.90;99.90;;;;;;5095755;28;19924;-63
2023/08/19 09:33:44;;;;;;;;;;;28.70;99.90;;;;;;5097785;28;19931;-63
2023/08/19 09:36:11;;;;;;;;;;;28.40;99.90;;;;;;5114117;28;19954;-64
2023/08/19 09:38:37;;;;;;;;;;;28.20;99.90;;;;;;5116144;28;19984;-64
2023/08/19 09:41:06;;;;;;;;;;;28.30;99.90;;;;;;5098507;28;19931;-64
2023/08/19 09:43:34;;;;;;;;;;;29.00;99.90;;;;;;5098436;28;20364;-63
2023/08/19 09:46:01;;;;;;;;;;;30.00;99.90;;;;;;5115711;28;19924;-64
2023/08/19 09:48:28;;;;;;;;;;;30.40;99.90;;;;;;5116064;28;20389;-63
2023/08/19 09:50:55;;;;;;;;;;;30.50;99.90;;;;;;5097783;28;19931;-64
2023/08/19 09:53:22;;;;;;;;;;;30.60;99.90;;;;;;5116426;28;19931;-64
2023/08/19 09:55:49;;;;;;;;;;;31.10;99.90;;;;;;5116207;28;19927;-64
2023/08/19 09:58:18;;;;;;;;;;;30.80;99.90;;;;;;5114834;28;20304;-64
2023/08/19 10:00:47;;;;;;;;;;;30.60;99.90;;;;;;5116138;28;19987;-64
2023/08/19 10:03:14;;;;;;;;;;;30.20;99.90;;;;;;5115837;28;20383;-62
2023/08/19 10:05:41;;;;;;;;;;;29.70;99.90;;;;;;5097096;28;19928;-65
2023/08/19 10:08:09;;;;;;;;;;;29.30;99.90;;;;;;5115994;28;20315;-63
2023/08/19 10:10:38;;;;;;;;;;;28.80;99.90;;;;;;5116069;28;19974;-64
2023/08/19 10:13:05;;;;;;;;;;;28.50;99.90;;;;;;5113292;28;19924;-63
2023/08/19 10:15:33;;;;;;;;;;;28.30;99.90;;;;;;5115757;28;19924;-64
2023/08/19 10:18:03;;;;;;;;;;;28.10;99.90;;;;;;5097446;28;19931;-64
2023/08/19 10:20:31;;;;;;;;;;;27.80;99.90;;;;;;5115334;28;19930;-64
2023/08/19 10:22:59;;;;;;;;;;;27.60;99.90;;;;;;5115180;28;19985;-64
2023/08/19 10:25:27;;;;;;;;;;;27.40;99.90;;;;;;5113388;28;19928;-64
2023/08/19 10:27:54;;;;;;;;;;;27.30;99.90;;;;;;5086181;28;19938;-64
2023/08/19 10:30:31;;;;;;;;;;;27.00;99.90;;;;;;5112946;28;19924;-64
2023/08/19 10:33:04;;;;;;;;;;;26.80;99.90;;;;;;5114509;28;19927;-64
2023/08/19 10:35:46;;;;;;;;;;;26.50;99.90;;;;;;5090253;28;20376;-65
2023/08/19 10:38:13;;;;;;;;;;;26.40;99.90;;;;;;5112972;27;19924;-64
2023/08/19 10:40:40;;;;;;;;;;;26.40;99.90;;;;;;5110491;28;20380;-63
2023/08/19 10:43:07;;;;;;;;;;;26.50;99.90;;;;;;5114003;28;19935;-63
2023/08/19 10:45:34;;;;;;;;;;;26.50;99.90;;;;;;5106660;28;20832;-64
2023/08/19 10:48:01;;;;;;;;;;;26.70;99.90;;;;;;5113453;28;19924;-64
2023/08/19 10:50:35;;;;;;;;;;;27.00;99.90;;;;;;5093710;28;19980;-63
2023/08/19 10:53:03;;;;;;;;;;;27.30;99.90;;;;;;5095324;28;19924;-65
2023/08/19 10:55:50;;;;;;;;;;;27.40;99.90;;;;;;5109337;27;19923;-63
2023/08/19 10:58:18;;;;;;;;;;;27.40;99.90;;;;;;5112462;28;20276;-64
2023/08/19 11:00:46;;;;;;;;;;;27.30;99.90;;;;;;5110368;28;19924;-64
2023/08/19 11:03:12;;;;;;;;;;;27.20;99.90;;;;;;5094069;28;19993;-63
2023/08/19 11:05:47;;;;;;;;;;;26.90;99.90;;;;;;5095727;28;19924;-64
2023/08/19 11:08:14;;;;;;;;;;;26.80;99.90;;;;;;5095262;28;19927;-63
2023/08/19 11:10:41;;;;;;;;;;;26.70;99.90;;;;;;5094893;28;19981;-64
2023/08/19 11:13:08;;;;;;;;;;;26.60;99.90;;;;;;5094937;28;19924;-64
2023/08/19 11:15:36;;;;;;;;;;;26.50;99.90;;;;;;5112965;28;19973;-63
2023/08/19 11:18:03;;;;;;;;;;;26.40;99.90;;;;;;5109765;28;20302;-63
2023/08/19 11:20:30;;;;;;;;;;;26.60;99.90;;;;;;5093426;28;19932;-64
2023/08/19 11:22:58;;;;;;;;;;;26.90;99.90;;;;;;5110778;28;19932;-64
2023/08/19 11:25:34;;;;;;;;;;;28.00;99.90;;;;;;5113920;28;19924;-64
2023/08/19 11:28:01;;;;;;;;;;;29.10;99.90;;;;;;5110492;28;19924;-64
2023/08/19 11:30:28;;;;;;;;;;;30.20;99.90;;;;;;5092144;28;19931;-64
2023/08/19 11:32:54;;;;;;;;;;;31.30;99.90;;;;;;5111480;28;19928;-64
2023/08/19 11:35:21;;;;;;;;;;;31.50;99.90;;;;;;5110253;28;20283;-65
2023/08/19 11:37:48;;;;;;;;;;;32.50;99.90;;;;;;5109938;28;19927;-65
2023/08/19 11:40:17;;;;;;;;;;;32.60;99.90;;;;;;5092757;28;19923;-65
2023/08/19 11:42:43;;;;;;;;;;;32.60;99.90;;;;;;5111738;28;20402;-63
2023/08/19 11:45:10;;;;;;;;;;;32.30;99.90;;;;;;5110427;28;19928;-64
2023/08/19 11:47:37;;;;;;;;;;;31.80;99.90;;;;;;5111122;28;19928;-64
2023/08/19 11:50:04;;;;;;;;;;;31.20;99.90;;;;;;5094112;28;20375;-64
2023/08/19 11:52:32;;;;;;;;;;;30.80;99.90;;;;;;5093149;28;19924;-63
2023/08/19 11:55:00;;;;;;;;;;;30.60;99.90;;;;;;5112889;28;19981;-63
2023/08/19 11:57:31;;;;;;;;;;;30.50;99.90;;;;;;5112027;28;19931;-63
2023/08/19 11:59:58;;;;;;;;;;;30.50;99.90;;;;;;5111104;28;19931;-64
2023/08/19 12:02:25;;;;;;;;;;;30.10;99.90;;;;;;5113660;28;19977;-64
2023/08/19 12:04:53;;;;;;;;;;;30.40;99.90;;;;;;5113420;28;19924;-64
2023/08/19 12:07:20;;;;;;;;;;;30.30;99.90;;;;;;5095838;28;19927;-64
2023/08/19 12:09:47;;;;;;;;;;;30.00;99.90;;;;;;5095719;28;19969;-64
2023/08/19 12:12:14;;;;;;;;;;;29.60;99.90;;;;;;5094630;28;20407;-64
2023/08/19 12:14:42;;;;;;;;;;;29.30;99.90;;;;;;5113511;28;19924;-64
2023/08/19 12:17:09;;;;;;;;;;;29.10;99.90;;;;;;5113615;28;19924;-64
2023/08/19 12:19:36;;;;;;;;;;;28.90;99.90;;;;;;5092669;28;19924;-64
2023/08/19 12:22:03;;;;;;;;;;;28.60;99.90;;;;;;5112448;28;19923;-64
2023/08/19 12:24:30;;;;;;;;;;;28.40;99.90;;;;;;5095503;28;19927;-64
2023/08/19 12:26:57;;;;;;;;;;;28.10;99.90;;;;;;5094743;28;19972;-64
2023/08/19 12:29:23;;;;;;;;;;;27.90;99.90;;;;;;5113567;28;19923;-64
2023/08/19 12:31:52;;;;;;;;;;;27.50;99.90;;;;;;5095312;28;19993;-64
2023/08/19 12:34:18;;;;;;;;;;;27.10;99.90;;;;;;5112521;28;19924;-64
2023/08/19 12:36:45;;;;;;;;;;;26.90;99.90;;;;;;5113429;28;19924;-64
2023/08/19 12:39:12;;;;;;;;;;;26.70;99.90;;;;;;5112965;28;19931;-64
2023/08/19 12:41:39;;;;;;;;;;;26.70;99.90;;;;;;5112495;28;19927;-64
2023/08/19 12:44:06;;;;;;;;;;;26.60;99.90;;;;;;5113285;28;19924;-64
2023/08/19 12:46:40;;;;;;;;;;;26.50;99.90;;;;;;5113181;28;19969;-64
2023/08/19 12:49:09;;;;;;;;;;;26.20;99.90;;;;;;5112077;28;19923;-64
2023/08/19 12:51:35;;;;;;;;;;;26.10;99.90;;;;;;5092774;28;19923;-64
2023/08/19 12:54:02;;;;;;;;;;;26.00;99.90;;;;;;5094431;28;19935;-64
2023/08/19 12:56:29;;;;;;;;;;;25.90;99.90;;;;;;5094870;28;19923;-63
2023/08/19 12:58:55;;;;;;;;;;;25.70;99.90;;;;;;5112876;28;19938;-63
2023/08/19 13:01:22;;;;;;;;;;;25.80;99.90;;;;;;5112427;28;20032;-63
2023/08/19 13:03:49;;;;;;;;;;;25.80;99.90;;;;;;5112807;28;19924;-64
2023/08/19 13:06:17;;;;;;;;;;;25.90;99.90;;;;;;5112829;28;19924;-64
2023/08/19 13:08:44;;;;;;;;;;;25.90;99.90;;;;;;5093846;28;19927;-63
2023/08/19 13:11:12;;;;;;;;;;;25.80;99.90;;;;;;5094547;28;19931;-64
2023/08/19 13:13:38;;;;;;;;;;;25.90;99.90;;;;;;5094506;28;19930;-63
2023/08/19 13:16:05;;;;;;;;;;;26.00;99.90;;;;;;5111149;28;20292;-64
2023/08/19 13:18:32;;;;;;;;;;;26.20;99.90;;;;;;5102445;28;19928;-63
2023/08/19 13:20:58;;;;;;;;;;;26.10;99.90;;;;;;5091066;28;20371;-63
2023/08/19 13:23:26;;;;;;;;;;;26.10;99.90;;;;;;5109880;28;19928;-63
2023/08/19 13:25:53;;;;;;;;;;;26.10;99.90;;;;;;5093897;28;19923;-63
2023/08/19 13:28:20;;;;;;;;;;;26.10;99.90;;;;;;5108251;28;19930;-64
2023/08/19 13:30:47;;;;;;;;;;;26.10;99.90;;;;;;5111310;28;19924;-63
2023/08/19 13:33:14;;;;;;;;;;;26.00;99.90;;;;;;5108239;28;20287;-63
2023/08/19 13:35:41;;;;;;;;;;;26.00;99.90;;;;;;5092628;28;19928;-63
2023/08/19 13:38:08;;;;;;;;;;;25.70;99.90;;;;;;5108735;28;19931;-63
2023/08/19 13:40:36;;;;;;;;;;;25.70;99.90;;;;;;5110032;28;20299;-63
2023/08/19 13:43:03;;;;;;;;;;;25.60;99.90;;;;;;5111513;28;20302;-62
2023/08/19 13:45:29;;;;;;;;;;;25.70;99.90;;;;;;5109113;28;19924;-63
2023/08/19 13:47:56;;;;;;;;;;;25.60;99.90;;;;;;5110766;28;20003;-63
2023/08/19 13:50:25;;;;;;;;;;;25.50;99.90;;;;;;5090907;28;20011;-63
2023/08/19 13:52:52;;;;;;;;;;;25.60;99.90;;;;;;5111353;28;19928;-63
2023/08/19 13:55:19;;;;;;;;;;;25.50;99.90;;;;;;5089780;28;19927;-63
2023/08/19 13:57:47;;;;;;;;;;;25.60;99.90;;;;;;5110685;28;20375;-63
2023/08/19 14:00:16;;;;;;;;;;;25.70;99.90;;;;;;5091398;28;19928;-63
2023/08/19 14:02:43;;;;;;;;;;;25.70;99.90;;;;;;5115128;28;19960;-64
2023/08/19 14:05:11;;;;;;;;;;;25.70;99.90;;;;;;5111831;28;19924;-64
2023/08/19 14:07:38;;;;;;;;;;;25.70;99.90;;;;;;5115008;28;19976;-63
2023/08/19 14:10:05;;;;;;;;;;;25.60;99.90;;;;;;5094422;28;19931;-63
2023/08/19 14:12:32;;;;;;;;;;;25.60;99.90;;;;;;5095439;28;19923;-64
2023/08/19 14:15:00;;;;;;;;;;;25.50;99.90;;;;;;5113589;28;19938;-64
2023/08/19 14:17:27;;;;;;;;;;;25.50;99.90;;;;;;5096572;28;19923;-64